Time;durP1;ratioP1;P1;durP2;ratioP2;P2;SDS_P1;SDS_P2;PMS_P1;PMS_P2;Temp;Humidity;BMP_temperature;BMP_pressure;BME280_temperature;BME280_humidity;BME280_pressure;Samples;Min_cycle;Max_cycle;Signal;HPM_P1;HPM_P2
2023/06/22 00:00:49;;;;;;;26.00;6.53;;;;;;;;;;4900436;29;20033;-69
2023/06/22 00:03:15;;;;;;;27.35;6.65;;;;;;;;;;4900637;29;20607;-69
2023/06/22 00:05:41;;;;;;;20.40;6.45;;;;;;;;;;4900567;29;20031;-69
2023/06/22 00:08:08;;;;;;;29.70;6.97;;;;;;;;;;4900747;29;20148;-69
2023/06/22 00:10:35;;;;;;;24.00;7.40;;;;;;;;;;4900363;29;20036;-69
2023/06/22 00:13:01;;;;;;;29.35;6.60;;;;;;;;;;4900611;29;20021;-69
2023/06/22 00:15:28;;;;;;;25.10;7.05;;;;;;;;;;4900421;29;20041;-69
2023/06/22 00:17:54;;;;;;;29.48;7.40;;;;;;;;;;4900355;29;20079;-70
2023/06/22 00:20:21;;;;;;;25.10;7.22;;;;;;;;;;4900509;29;20043;-69
2023/06/22 00:22:48;;;;;;;22.65;7.10;;;;;;;;;;4900162;29;20551;-68
2023/06/22 00:25:14;;;;;;;26.15;7.18;;;;;;;;;;4900246;29;20028;-69
2023/06/22 00:27:40;;;;;;;31.67;7.20;;;;;;;;;;4900294;29;20025;-69
2023/06/22 00:30:07;;;;;;;27.75;7.63;;;;;;;;;;4900078;29;20038;-69
2023/06/22 00:32:33;;;;;;;22.23;7.15;;;;;;;;;;4900407;29;20031;-69
2023/06/22 00:35:00;;;;;;;24.25;7.65;;;;;;;;;;4900226;29;20021;-69
2023/06/22 00:37:29;;;;;;;26.50;8.25;;;;;;;;;;4900011;29;20039;-69
2023/06/22 00:39:56;;;;;;;26.67;8.23;;;;;;;;;;4899755;29;20397;-69
2023/06/22 00:42:23;;;;;;;29.67;7.60;;;;;;;;;;4899713;29;20389;-69
2023/06/22 00:44:49;;;;;;;29.73;7.75;;;;;;;;;;4900101;29;20029;-69
2023/06/22 00:47:17;;;;;;;31.08;8.38;;;;;;;;;;4899860;29;20021;-69
2023/06/22 00:49:43;;;;;;;22.48;7.75;;;;;;;;;;4900142;29;20031;-69
2023/06/22 00:52:13;;;;;;;26.13;8.20;;;;;;;;;;4899858;29;20487;-69
2023/06/22 00:54:46;;;;;;;25.48;8.40;;;;;;;;;;4899730;29;20062;-69
2023/06/22 00:57:15;;;;;;;32.40;8.23;;;;;;;;;;4899369;29;20039;-69
2023/06/22 00:59:48;;;;;;;26.65;8.52;;;;;;;;;;4899682;29;20088;-69
2023/06/22 01:02:15;;;;;;;29.92;8.43;;;;;;;;;;4899723;29;20028;-69
2023/06/22 01:04:41;;;;;;;35.20;8.68;;;;;;;;;;4899597;29;20021;-69
2023/06/22 01:07:14;;;;;;;27.17;8.13;;;;;;;;;;4899515;29;20035;-69
2023/06/22 01:09:46;;;;;;;27.42;8.98;;;;;;;;;;4882809;29;20032;-69
2023/06/22 01:12:12;;;;;;;28.60;8.73;;;;;;;;;;4899072;29;20064;-69
2023/06/22 01:14:42;;;;;;;28.33;9.23;;;;;;;;;;4899300;29;20021;-69
2023/06/22 01:17:09;;;;;;;25.73;8.07;;;;;;;;;;4899430;29;20037;-69
2023/06/22 01:19:41;;;;;;;26.77;8.18;;;;;;;;;;4899216;29;20037;-69
2023/06/22 01:22:15;;;;;;;23.27;8.63;;;;;;;;;;4899102;29;20025;-69
2023/06/22 01:25:00;;;;;;;26.13;7.90;;;;;;;;;;4899511;29;20036;-69
2023/06/22 01:27:29;;;;;;;27.13;8.32;;;;;;;;;;4898717;29;20414;-69
2023/06/22 01:30:00;;;;;;;30.85;9.18;;;;;;;;;;4899137;29;20035;-69
2023/06/22 01:32:30;;;;;;;28.77;8.70;;;;;;;;;;4899317;29;20050;-69
2023/06/22 01:34:58;;;;;;;27.92;8.40;;;;;;;;;;4899098;29;20027;-69
2023/06/22 01:37:24;;;;;;;32.38;8.50;;;;;;;;;;4899047;29;20446;-69
2023/06/22 01:39:51;;;;;;;24.48;7.80;;;;;;;;;;4898817;29;20047;-69
2023/06/22 01:42:17;;;;;;;28.75;9.13;;;;;;;;;;4898758;29;20027;-69
2023/06/22 01:44:44;;;;;;;28.55;8.63;;;;;;;;;;4898903;29;20043;-69
2023/06/22 01:47:10;;;;;;;29.98;8.65;;;;;;;;;;4898793;29;20512;-69
2023/06/22 01:49:37;;;;;;;32.13;8.30;;;;;;;;;;4898757;29;20037;-69
2023/06/22 01:52:03;;;;;;;25.55;8.10;;;;;;;;;;4898784;29;20442;-69
2023/06/22 01:54:30;;;;;;;29.15;8.55;;;;;;;;;;4898503;29;20393;-68
2023/06/22 01:56:56;;;;;;;29.42;8.80;;;;;;;;;;4898472;29;20031;-70
2023/06/22 01:59:28;;;;;;;23.70;8.27;;;;;;;;;;4898470;29;20046;-69
2023/06/22 02:02:06;;;;;;;22.20;8.25;;;;;;;;;;4898616;29;20590;-69
2023/06/22 02:04:44;;;;;;;24.17;7.97;;;;;;;;;;4898540;29;20028;-69
2023/06/22 02:07:13;;;;;;;24.60;8.07;;;;;;;;;;4898699;29;20032;-69
2023/06/22 02:09:43;;;;;;;24.38;8.23;;;;;;;;;;4898125;29;20031;-69
2023/06/22 02:12:11;;;;;;;20.83;7.72;;;;;;;;;;4898378;29;20035;-69
2023/06/22 02:14:38;;;;;;;19.30;7.85;;;;;;;;;;4897785;29;20032;-69
2023/06/22 02:17:07;;;;;;;18.45;7.22;;;;;;;;;;4898559;29;20025;-70
2023/06/22 02:19:36;;;;;;;19.55;7.40;;;;;;;;;;4898165;29;20046;-69
2023/06/22 02:22:03;;;;;;;20.30;6.88;;;;;;;;;;4897946;29;20021;-68
2023/06/22 02:24:31;;;;;;;18.40;6.85;;;;;;;;;;4897802;29;20064;-69
2023/06/22 02:26:58;;;;;;;25.30;7.65;;;;;;;;;;4898091;29;20033;-69
2023/06/22 02:29:25;;;;;;;22.85;7.60;;;;;;;;;;4898071;29;20031;-69
2023/06/22 02:31:51;;;;;;;20.20;7.30;;;;;;;;;;4898039;29;20021;-69
2023/06/22 02:34:18;;;;;;;18.67;7.07;;;;;;;;;;4898089;29;20039;-69
2023/06/22 02:36:50;;;;;;;23.88;7.03;;;;;;;;;;4898101;29;20021;-69
2023/06/22 02:39:19;;;;;;;15.30;6.47;;;;;;;;;;4897451;29;20040;-69
2023/06/22 02:41:46;;;;;;;14.88;6.60;;;;;;;;;;4897766;29;20031;-69
2023/06/22 02:44:12;;;;;;;17.33;8.07;;;;;;;;;;4897933;29;20445;-69
2023/06/22 02:46:38;;;;;;;21.17;7.57;;;;;;;;;;4897691;29;20029;-69
2023/06/22 02:49:05;;;;;;;24.08;6.95;;;;;;;;;;4897758;29;20032;-69
2023/06/22 02:51:39;;;;;;;25.52;7.85;;;;;;;;;;4897755;29;20030;-69
2023/06/22 02:54:06;;;;;;;21.95;6.97;;;;;;;;;;4897330;29;20389;-70
2023/06/22 02:56:32;;;;;;;28.92;7.88;;;;;;;;;;4897920;29;20029;-69
2023/06/22 02:59:01;;;;;;;19.63;7.55;;;;;;;;;;4897664;29;20033;-69
2023/06/22 03:01:30;;;;;;;18.17;7.80;;;;;;;;;;4897384;29;20054;-69
2023/06/22 03:03:56;;;;;;;21.10;7.93;;;;;;;;;;4897520;29;20032;-69
2023/06/22 03:06:28;;;;;;;20.67;7.97;;;;;;;;;;4897455;29;20408;-69
2023/06/22 03:08:59;;;;;;;22.75;7.72;;;;;;;;;;4897138;29;20027;-69
2023/06/22 03:11:25;;;;;;;24.55;8.52;;;;;;;;;;4897419;29;20083;-69
2023/06/22 03:13:52;;;;;;;28.98;8.70;;;;;;;;;;4897637;29;20029;-69
2023/06/22 03:16:19;;;;;;;25.38;8.18;;;;;;;;;;4897613;29;20020;-69
2023/06/22 03:18:45;;;;;;;22.35;7.40;;;;;;;;;;4897109;29;20043;-69
2023/06/22 03:21:12;;;;;;;20.73;7.35;;;;;;;;;;4897182;29;20401;-69
2023/06/22 03:23:38;;;;;;;22.48;7.60;;;;;;;;;;4896871;29;20058;-69
2023/06/22 03:26:04;;;;;;;21.67;7.88;;;;;;;;;;4896236;29;20035;-70
2023/06/22 03:28:31;;;;;;;24.42;7.75;;;;;;;;;;4897017;29;20400;-69
2023/06/22 03:30:58;;;;;;;22.00;8.25;;;;;;;;;;4897038;29;20048;-69
2023/06/22 03:33:25;;;;;;;31.08;8.98;;;;;;;;;;4897434;29;20035;-69
2023/06/22 03:35:51;;;;;;;25.27;8.45;;;;;;;;;;4897341;29;20016;-69
2023/06/22 03:38:17;;;;;;;31.33;8.35;;;;;;;;;;4896792;29;20059;-69
2023/06/22 03:40:44;;;;;;;26.73;8.00;;;;;;;;;;4896952;29;20043;-69
2023/06/22 03:43:10;;;;;;;30.70;8.90;;;;;;;;;;4880287;29;20442;-69
2023/06/22 03:45:37;;;;;;;25.58;8.43;;;;;;;;;;4897191;29;20036;-70
2023/06/22 03:48:03;;;;;;;26.33;8.02;;;;;;;;;;4897228;29;20033;-69
2023/06/22 03:50:29;;;;;;;31.85;9.27;;;;;;;;;;4880174;29;20021;-69
2023/06/22 03:52:56;;;;;;;27.58;8.73;;;;;;;;;;4896723;29;20213;-69
2023/06/22 03:55:22;;;;;;;30.83;9.88;;;;;;;;;;4896934;29;20033;-69
2023/06/22 03:57:48;;;;;;;20.67;8.60;;;;;;;;;;4896887;29;20486;-69
2023/06/22 04:00:18;;;;;;;26.67;8.80;;;;;;;;;;4896893;29;20047;-69
2023/06/22 04:02:44;;;;;;;27.90;8.50;;;;;;;;;;4897111;29;20024;-69
2023/06/22 04:05:10;;;;;;;23.45;8.75;;;;;;;;;;4896740;29;20043;-69
2023/06/22 04:07:37;;;;;;;20.58;8.65;;;;;;;;;;4896413;29;20080;-69
2023/06/22 04:10:06;;;;;;;29.17;8.75;;;;;;;;;;4897147;29;20028;-69
2023/06/22 04:12:33;;;;;;;33.78;9.40;;;;;;;;;;4896798;29;20088;-69
2023/06/22 04:14:59;;;;;;;22.38;8.57;;;;;;;;;;4896841;29;20032;-69
2023/06/22 04:17:26;;;;;;;28.23;9.07;;;;;;;;;;4896655;29;20506;-69
2023/06/22 04:19:52;;;;;;;29.75;9.25;;;;;;;;;;4896252;29;20044;-69
2023/06/22 04:22:19;;;;;;;25.08;9.15;;;;;;;;;;4896656;29;20512;-69
2023/06/22 04:24:45;;;;;;;22.95;8.73;;;;;;;;;;4897090;29;20044;-69
2023/06/22 04:27:11;;;;;;;26.35;9.20;;;;;;;;;;4896565;29;20028;-69
2023/06/22 04:29:43;;;;;;;25.60;9.23;;;;;;;;;;4896563;29;20036;-69
2023/06/22 04:32:12;;;;;;;30.17;8.98;;;;;;;;;;4896725;29;20478;-69
2023/06/22 04:34:38;;;;;;;25.50;8.90;;;;;;;;;;4896318;29;20032;-69
2023/06/22 04:37:05;;;;;;;28.33;8.70;;;;;;;;;;4896884;29;20400;-69
2023/06/22 04:39:31;;;;;;;30.00;9.15;;;;;;;;;;4899968;29;20427;-69
2023/06/22 04:42:00;;;;;;;25.00;8.75;;;;;;;;;;4900232;29;20032;-70
2023/06/22 04:44:27;;;;;;;30.85;8.88;;;;;;;;;;4900048;29;20489;-70
2023/06/22 04:46:54;;;;;;;22.70;9.35;;;;;;;;;;4900344;29;20053;-69
2023/06/22 04:49:21;;;;;;;28.42;8.63;;;;;;;;;;4899716;29;20028;-69
2023/06/22 04:51:49;;;;;;;27.45;9.13;;;;;;;;;;4899965;29;20021;-69
2023/06/22 04:54:15;;;;;;;23.00;8.43;;;;;;;;;;4899839;29;20021;-69
2023/06/22 04:56:41;;;;;;;21.25;8.02;;;;;;;;;;4899829;29;20482;-69
2023/06/22 04:59:08;;;;;;;26.45;9.20;;;;;;;;;;4899515;29;20039;-69
2023/06/22 05:01:34;;;;;;;24.90;9.02;;;;;;;;;;4899830;29;20079;-69
2023/06/22 05:04:02;;;;;;;28.35;8.75;;;;;;;;;;4899359;29;20496;-69
2023/06/22 05:06:29;;;;;;;27.48;8.57;;;;;;;;;;4899810;29;20035;-69
2023/06/22 05:08:58;;;;;;;22.40;9.02;;;;;;;;;;4899755;29;20063;-69
2023/06/22 05:11:25;;;;;;;24.05;8.38;;;;;;;;;;4899457;29;20034;-69
2023/06/22 05:13:52;;;;;;;35.78;10.07;;;;;;;;;;4882548;29;20029;-69
2023/06/22 05:16:23;;;;;;;24.00;9.63;;;;;;;;;;4899460;29;20017;-69
2023/06/22 05:18:51;;;;;;;27.85;8.52;;;;;;;;;;4898943;29;20084;-69
2023/06/22 05:21:17;;;;;;;20.90;8.85;;;;;;;;;;4899436;29;20024;-69
2023/06/22 05:23:43;;;;;;;26.80;9.10;;;;;;;;;;4899166;29;20045;-69
2023/06/22 05:26:10;;;;;;;27.40;9.52;;;;;;;;;;4899074;29;20020;-69
2023/06/22 05:28:36;;;;;;;29.30;9.23;;;;;;;;;;4899219;29;20031;-69
2023/06/22 05:31:03;;;;;;;25.58;9.82;;;;;;;;;;4899166;29;20446;-69
2023/06/22 05:33:30;;;;;;;21.25;9.68;;;;;;;;;;4898807;29;20512;-69
2023/06/22 05:35:56;;;;;;;22.50;9.45;;;;;;;;;;4899091;29;20528;-69
2023/06/22 05:38:22;;;;;;;27.70;9.88;;;;;;;;;;4899089;29;20036;-69
2023/06/22 05:40:49;;;;;;;23.23;9.55;;;;;;;;;;4899036;29;20474;-69
2023/06/22 05:43:15;;;;;;;23.85;8.90;;;;;;;;;;4899130;29;20040;-70
2023/06/22 05:45:42;;;;;;;31.48;10.88;;;;;;;;;;4899715;29;20486;-69
2023/06/22 05:48:08;;;;;;;24.98;9.68;;;;;;;;;;4898521;29;20087;-69
2023/06/22 05:50:34;;;;;;;27.20;9.70;;;;;;;;;;4897823;29;20025;-69
2023/06/22 05:53:01;;;;;;;22.88;8.90;;;;;;;;;;4898895;29;20025;-69
2023/06/22 05:55:27;;;;;;;24.60;8.70;;;;;;;;;;4898844;29;20032;-69
2023/06/22 05:57:53;;;;;;;32.83;9.57;;;;;;;;;;4898857;29;20493;-69
2023/06/22 06:00:20;;;;;;;27.75;9.38;;;;;;;;;;4898925;29;20040;-69
2023/06/22 06:02:46;;;;;;;27.77;9.10;;;;;;;;;;4898513;29;20021;-69
2023/06/22 06:05:16;;;;;;;29.83;9.05;;;;;;;;;;4881543;29;20036;-69
2023/06/22 06:07:45;;;;;;;28.13;9.15;;;;;;;;;;4898551;29;20378;-69
2023/06/22 06:10:12;;;;;;;22.90;8.77;;;;;;;;;;4898618;29;20031;-69
2023/06/22 06:12:38;;;;;;;18.13;8.43;;;;;;;;;;4897638;29;20346;-69
2023/06/22 06:15:05;;;;;;;27.73;9.15;;;;;;;;;;4901194;29;20035;-69
2023/06/22 06:17:31;;;;;;;28.55;9.02;;;;;;;;;;4894236;29;20031;-72
2023/06/22 06:20:00;;;;;;;27.40;9.60;;;;;;;;;;4880834;29;20040;-72
2023/06/22 06:22:26;;;;;;;35.28;12.07;;;;;;;;;;4902924;29;20043;-72
2023/06/22 06:24:53;;;;;;;32.42;12.00;;;;;;;;;;4904957;29;20413;-70
2023/06/22 06:27:19;;;;;;;27.45;12.07;;;;;;;;;;4893073;29;20036;-71
2023/06/22 06:29:47;;;;;;;32.92;12.30;;;;;;;;;;4916224;29;20024;-70
2023/06/22 06:32:14;;;;;;;34.67;13.48;;;;;;;;;;4905427;29;20029;-69
2023/06/22 06:34:40;;;;;;;38.67;13.43;;;;;;;;;;4897401;29;20028;-71
2023/06/22 06:37:06;;;;;;;32.53;12.68;;;;;;;;;;4901740;29;20034;-72
2023/06/22 06:39:33;;;;;;;27.52;12.02;;;;;;;;;;4916200;29;20106;-71
2023/06/22 06:41:59;;;;;;;29.08;11.73;;;;;;;;;;4916315;29;20024;-72
2023/06/22 06:44:25;;;;;;;29.67;12.57;;;;;;;;;;4913535;29;20101;-71
2023/06/22 06:46:54;;;;;;;32.10;11.45;;;;;;;;;;4896700;29;20036;-71
2023/06/22 06:49:20;;;;;;;25.23;10.77;;;;;;;;;;4910391;29;20404;-71
2023/06/22 06:51:46;;;;;;;29.17;10.52;;;;;;;;;;4916107;29;20022;-72
2023/06/22 06:54:13;;;;;;;25.00;10.73;;;;;;;;;;4894120;29;20028;-71
2023/06/22 06:56:39;;;;;;;21.15;9.48;;;;;;;;;;4899937;29;20034;-71
2023/06/22 06:59:05;;;;;;;20.23;10.57;;;;;;;;;;4915878;29;20046;-71
2023/06/22 07:01:33;;;;;;;29.08;12.05;;;;;;;;;;4898765;29;20116;-72
2023/06/22 07:04:01;;;;;;;27.60;12.07;;;;;;;;;;4897203;29;20072;-71
2023/06/22 07:06:29;;;;;;;26.30;11.43;;;;;;;;;;4897403;29;20036;-72
2023/06/22 07:08:56;;;;;;;20.52;10.48;;;;;;;;;;4896224;29;20035;-68
2023/06/22 07:11:22;;;;;;;24.38;10.40;;;;;;;;;;4884498;29;20043;-69
2023/06/22 07:13:48;;;;;;;26.70;10.13;;;;;;;;;;4895275;29;20028;-69
2023/06/22 07:16:15;;;;;;;22.52;9.63;;;;;;;;;;4896621;29;20046;-69
2023/06/22 07:18:41;;;;;;;22.45;10.13;;;;;;;;;;4898290;29;20031;-68
2023/06/22 07:21:08;;;;;;;25.80;9.82;;;;;;;;;;4891513;29;20041;-68
2023/06/22 07:23:34;;;;;;;18.85;10.25;;;;;;;;;;4878897;29;20045;-69
2023/06/22 07:26:06;;;;;;;25.25;10.93;;;;;;;;;;4895564;29;20087;-69
2023/06/22 07:28:36;;;;;;;24.50;9.90;;;;;;;;;;4895341;29;20508;-70
2023/06/22 07:31:04;;;;;;;25.35;10.80;;;;;;;;;;4895830;29;20032;-70
2023/06/22 07:33:30;;;;;;;28.27;9.32;;;;;;;;;;4896040;29;20035;-69
2023/06/22 07:35:56;;;;;;;25.83;8.93;;;;;;;;;;4896284;29;20029;-68
2023/06/22 07:38:23;;;;;;;17.58;8.45;;;;;;;;;;4896009;29;20021;-70
2023/06/22 07:40:50;;;;;;;14.93;7.35;;;;;;;;;;4896370;29;20037;-67
2023/06/22 07:43:17;;;;;;;16.48;7.50;;;;;;;;;;4895000;29;20412;-69
2023/06/22 07:45:52;;;;;;;15.65;6.78;;;;;;;;;;4895716;29;20039;-69
2023/06/22 07:48:21;;;;;;;17.27;6.63;;;;;;;;;;4895834;29;20032;-68
2023/06/22 07:50:47;;;;;;;17.73;5.45;;;;;;;;;;4894834;29;20040;-68
2023/06/22 07:53:13;;;;;;;12.57;4.82;;;;;;;;;;4895635;29;20025;-69
2023/06/22 07:55:39;;;;;;;11.55;4.43;;;;;;;;;;4889794;29;20063;-69
2023/06/22 07:58:06;;;;;;;9.60;4.43;;;;;;;;;;4876680;29;20033;-68
2023/06/22 08:00:34;;;;;;;7.85;4.40;;;;;;;;;;4877326;29;20045;-69
2023/06/22 08:03:03;;;;;;;12.45;4.32;;;;;;;;;;4880666;29;20029;-69
2023/06/22 08:05:30;;;;;;;8.13;3.67;;;;;;;;;;4895827;29;20039;-69
2023/06/22 08:07:56;;;;;;;9.27;3.55;;;;;;;;;;4895392;29;20486;-68
2023/06/22 08:10:22;;;;;;;6.55;3.35;;;;;;;;;;4895148;29;20028;-69
2023/06/22 08:12:49;;;;;;;7.13;3.15;;;;;;;;;;4897371;29;20033;-69
2023/06/22 08:15:15;;;;;;;9.27;3.30;;;;;;;;;;4899585;29;20087;-69
2023/06/22 08:17:41;;;;;;;7.35;3.13;;;;;;;;;;4896353;29;20040;-69
2023/06/22 08:20:12;;;;;;;9.77;3.25;;;;;;;;;;4899142;29;20040;-68
2023/06/22 08:22:39;;;;;;;11.10;3.15;;;;;;;;;;4899690;29;20417;-68
2023/06/22 08:25:06;;;;;;;6.65;3.58;;;;;;;;;;4899373;29;20029;-69
2023/06/22 08:27:32;;;;;;;8.60;3.28;;;;;;;;;;4895368;29;20028;-69
2023/06/22 08:29:59;;;;;;;5.68;2.80;;;;;;;;;;4896680;29;20021;-69
2023/06/22 08:32:26;;;;;;;9.30;3.05;;;;;;;;;;4899201;29;20035;-69
2023/06/22 08:34:53;;;;;;;7.05;2.80;;;;;;;;;;4898889;29;20024;-69
2023/06/22 08:37:20;;;;;;;5.50;3.28;;;;;;;;;;4895219;29;20028;-70
2023/06/22 08:39:46;;;;;;;5.72;2.75;;;;;;;;;;4895861;29;20040;-70
2023/06/22 08:42:13;;;;;;;5.13;2.53;;;;;;;;;;4898737;29;20474;-70
2023/06/22 08:44:39;;;;;;;7.32;2.80;;;;;;;;;;4893941;29;20070;-70
2023/06/22 08:47:05;;;;;;;7.35;2.67;;;;;;;;;;4878584;29;20470;-70
2023/06/22 08:49:32;;;;;;;4.15;2.95;;;;;;;;;;4898086;29;20050;-71
2023/06/22 08:51:58;;;;;;;5.80;2.97;;;;;;;;;;4898232;29;20031;-70
2023/06/22 08:54:25;;;;;;;10.45;2.88;;;;;;;;;;4894132;29;20025;-70
2023/06/22 08:56:51;;;;;;;4.43;3.10;;;;;;;;;;4895727;29;20473;-70
2023/06/22 08:59:17;;;;;;;4.72;3.20;;;;;;;;;;4893976;29;20039;-70
2023/06/22 09:01:45;;;;;;;6.07;3.22;;;;;;;;;;4898625;29;20072;-70
2023/06/22 09:04:12;;;;;;;4.53;3.20;;;;;;;;;;4898810;29;20029;-70
2023/06/22 09:06:44;;;;;;;6.75;3.35;;;;;;;;;;4880861;29;20044;-70
2023/06/22 09:09:11;;;;;;;8.85;3.20;;;;;;;;;;4898391;29;20474;-71
2023/06/22 09:11:37;;;;;;;8.82;3.25;;;;;;;;;;4897767;29;20033;-71
2023/06/22 09:14:04;;;;;;;4.10;2.72;;;;;;;;;;4898069;29;20486;-70
2023/06/22 09:16:30;;;;;;;3.50;2.85;;;;;;;;;;4894959;29;20028;-71
2023/06/22 09:18:56;;;;;;;6.65;2.60;;;;;;;;;;4892598;29;20512;-71
2023/06/22 09:21:24;;;;;;;5.97;3.30;;;;;;;;;;4892430;29;20047;-70
2023/06/22 09:23:51;;;;;;;6.90;3.80;;;;;;;;;;4894429;29;20048;-71
2023/06/22 09:26:18;;;;;;;6.10;3.28;;;;;;;;;;4880952;29;20045;-70
2023/06/22 09:28:44;;;;;;;6.80;3.15;;;;;;;;;;4897515;29;20040;-70
2023/06/22 09:31:10;;;;;;;5.60;3.33;;;;;;;;;;4897488;29;20389;-71
2023/06/22 09:33:40;;;;;;;4.22;2.97;;;;;;;;;;4898095;29;20036;-70
2023/06/22 09:36:07;;;;;;;9.00;2.83;;;;;;;;;;4897855;29;20070;-71
2023/06/22 09:38:39;;;;;;;3.70;3.05;;;;;;;;;;4897800;29;20033;-71
2023/06/22 09:41:05;;;;;;;4.82;3.20;;;;;;;;;;4896035;29;20088;-70
2023/06/22 09:43:35;;;;;;;3.95;2.90;;;;;;;;;;4897193;29;20035;-70
2023/06/22 09:46:02;;;;;;;5.57;3.05;;;;;;;;;;4896925;29;20038;-71
2023/06/22 09:48:30;;;;;;;4.28;2.95;;;;;;;;;;4897800;29;20040;-71
2023/06/22 09:50:56;;;;;;;7.95;3.08;;;;;;;;;;4897716;29;20032;-70
2023/06/22 09:53:22;;;;;;;6.97;3.35;;;;;;;;;;4896975;29;20032;-70
2023/06/22 09:55:49;;;;;;;6.57;3.00;;;;;;;;;;4897550;29;20198;-71
2023/06/22 09:58:15;;;;;;;5.57;2.90;;;;;;;;;;4897374;29;20028;-70
2023/06/22 10:00:41;;;;;;;3.35;2.55;;;;;;;;;;4896362;29;20453;-71
2023/06/22 10:03:08;;;;;;;4.82;3.17;;;;;;;;;;4897483;29;20099;-69
2023/06/22 10:05:35;;;;;;;3.63;2.80;;;;;;;;;;4897313;29;20032;-70
2023/06/22 10:08:01;;;;;;;5.10;2.83;;;;;;;;;;4897193;29;20032;-71
2023/06/22 10:10:27;;;;;;;8.30;3.13;;;;;;;;;;4897751;29;20025;-70
2023/06/22 10:12:57;;;;;;;5.00;2.78;;;;;;;;;;4897297;29;20033;-70
2023/06/22 10:15:24;;;;;;;7.07;3.33;;;;;;;;;;4897529;29;20029;-69
2023/06/22 10:17:50;;;;;;;5.53;3.00;;;;;;;;;;4897347;29;20024;-71
2023/06/22 10:20:18;;;;;;;5.90;2.95;;;;;;;;;;4897677;29;20048;-70
2023/06/22 10:22:45;;;;;;;4.18;3.03;;;;;;;;;;4897136;29;20045;-70
2023/06/22 10:25:12;;;;;;;4.22;2.90;;;;;;;;;;4896942;29;20519;-70
2023/06/22 10:27:42;;;;;;;5.90;3.20;;;;;;;;;;4881676;29;20047;-71
2023/06/22 10:30:09;;;;;;;4.57;3.20;;;;;;;;;;4877823;29;20592;-70
2023/06/22 10:32:36;;;;;;;4.03;3.33;;;;;;;;;;4878218;29;20494;-70
2023/06/22 10:35:03;;;;;;;5.35;3.25;;;;;;;;;;4877705;29;20486;-70
2023/06/22 10:37:29;;;;;;;5.55;2.83;;;;;;;;;;4878425;29;20036;-71
2023/06/22 10:39:55;;;;;;;4.10;2.95;;;;;;;;;;4878354;29;20525;-70
2023/06/22 10:42:22;;;;;;;5.30;3.00;;;;;;;;;;4878757;29;20025;-71
2023/06/22 10:44:48;;;;;;;3.90;2.78;;;;;;;;;;4878622;29;20516;-71
2023/06/22 10:47:14;;;;;;;5.88;2.85;;;;;;;;;;4861673;29;20043;-71
2023/06/22 10:49:41;;;;;;;4.35;2.65;;;;;;;;;;4878862;29;20029;-71
2023/06/22 10:52:08;;;;;;;3.10;2.50;;;;;;;;;;4861966;29;20077;-71
2023/06/22 10:54:35;;;;;;;5.55;2.80;;;;;;;;;;4878747;29;20021;-71
2023/06/22 10:57:01;;;;;;;4.18;3.20;;;;;;;;;;4877498;29;20406;-70
2023/06/22 10:59:28;;;;;;;5.60;2.80;;;;;;;;;;4878288;29;20391;-70
2023/06/22 11:01:56;;;;;;;5.30;3.25;;;;;;;;;;4884314;29;20485;-70
2023/06/22 11:04:22;;;;;;;3.72;2.83;;;;;;;;;;4907612;29;20020;-71
2023/06/22 11:06:49;;;;;;;3.40;2.78;;;;;;;;;;4900043;29;20028;-70
2023/06/22 11:09:21;;;;;;;6.45;3.30;;;;;;;;;;4896921;29;20017;-70
2023/06/22 11:11:48;;;;;;;4.93;3.00;;;;;;;;;;4895738;29;20028;-70
2023/06/22 11:14:14;;;;;;;5.18;3.08;;;;;;;;;;4879511;29;20017;-71
2023/06/22 11:16:41;;;;;;;4.15;2.97;;;;;;;;;;4896519;29;20048;-69
2023/06/22 11:19:07;;;;;;;2.80;2.60;;;;;;;;;;4896495;29;20038;-69
2023/06/22 11:21:33;;;;;;;4.53;3.22;;;;;;;;;;4886705;29;20029;-68
2023/06/22 11:24:00;;;;;;;3.85;3.30;;;;;;;;;;4892967;29;20426;-69
2023/06/22 11:26:27;;;;;;;3.50;3.20;;;;;;;;;;4896391;29;20039;-69
2023/06/22 11:28:53;;;;;;;3.65;2.95;;;;;;;;;;4896258;29;20028;-68
2023/06/22 11:31:20;;;;;;;3.20;2.55;;;;;;;;;;4895941;29;20025;-69
2023/06/22 11:33:47;;;;;;;4.88;3.22;;;;;;;;;;4895804;29;20498;-68
2023/06/22 11:36:14;;;;;;;4.82;3.22;;;;;;;;;;4888470;29;20031;-69
2023/06/22 11:38:40;;;;;;;8.15;3.38;;;;;;;;;;4892684;29;20023;-68
2023/06/22 11:41:07;;;;;;;4.60;3.25;;;;;;;;;;4895009;29;20057;-69
2023/06/22 11:43:34;;;;;;;5.22;3.42;;;;;;;;;;4896222;29;20020;-70
2023/06/22 11:46:01;;;;;;;8.10;3.40;;;;;;;;;;4891479;29;20029;-68
2023/06/22 11:48:28;;;;;;;11.40;3.53;;;;;;;;;;4887732;29;20482;-69
2023/06/22 11:50:54;;;;;;;6.03;3.35;;;;;;;;;;4899030;29;20029;-69
2023/06/22 11:53:25;;;;;;;3.92;3.00;;;;;;;;;;4891511;29;20044;-66
2023/06/22 11:55:52;;;;;;;5.57;2.95;;;;;;;;;;4906464;29;20497;-68
2023/06/22 11:58:19;;;;;;;3.72;2.85;;;;;;;;;;4897041;29;20028;-69
2023/06/22 12:00:45;;;;;;;7.80;3.20;;;;;;;;;;4899040;29;20036;-69
2023/06/22 12:03:12;;;;;;;3.38;2.78;;;;;;;;;;4899137;29;20481;-69
2023/06/22 12:05:38;;;;;;;3.00;2.45;;;;;;;;;;4882552;29;20061;-68
2023/06/22 12:08:05;;;;;;;3.83;2.20;;;;;;;;;;4898426;29;20512;-69
2023/06/22 12:10:31;;;;;;;3.15;1.95;;;;;;;;;;4898977;29;20040;-69
2023/06/22 12:12:59;;;;;;;2.08;1.85;;;;;;;;;;4882102;29;20478;-70
2023/06/22 12:15:26;;;;;;;2.42;1.70;;;;;;;;;;4898474;29;20052;-68
2023/06/22 12:17:52;;;;;;;2.03;1.77;;;;;;;;;;4899320;29;20028;-69
2023/06/22 12:20:19;;;;;;;2.10;1.90;;;;;;;;;;4897330;29;20040;-69
2023/06/22 12:22:45;;;;;;;2.10;1.45;;;;;;;;;;4899259;29;20528;-69
2023/06/22 12:25:12;;;;;;;2.45;1.80;;;;;;;;;;4898134;29;20037;-69
2023/06/22 12:27:38;;;;;;;1.70;1.58;;;;;;;;;;4884129;29;20051;-68
2023/06/22 12:30:05;;;;;;;1.77;1.67;;;;;;;;;;4900894;29;20508;-70
2023/06/22 12:32:31;;;;;;;2.17;1.40;;;;;;;;;;4905010;29;20091;-69
2023/06/22 12:34:58;;;;;;;1.60;1.40;;;;;;;;;;4917640;29;20032;-69
2023/06/22 12:37:24;;;;;;;1.65;1.40;;;;;;;;;;4905331;29;20031;-69
2023/06/22 12:39:50;;;;;;;1.77;1.63;;;;;;;;;;4898833;29;20031;-68
2023/06/22 12:42:17;;;;;;;1.70;1.48;;;;;;;;;;4898978;29;20039;-69
2023/06/22 12:44:44;;;;;;;2.22;1.42;;;;;;;;;;4898254;29;20033;-68
2023/06/22 12:47:11;;;;;;;2.70;1.60;;;;;;;;;;4899529;29;20034;-69
2023/06/22 12:49:37;;;;;;;8.45;3.15;;;;;;;;;;4880099;29;20027;-70
2023/06/22 12:52:03;;;;;;;10.32;3.50;;;;;;;;;;4903086;29;20511;-70
2023/06/22 12:54:30;;;;;;;5.28;3.25;;;;;;;;;;4905963;29;20032;-68
2023/06/22 12:56:57;;;;;;;5.15;3.00;;;;;;;;;;4899865;29;20051;-69
2023/06/22 12:59:23;;;;;;;4.75;2.70;;;;;;;;;;4907620;29;20047;-69
2023/06/22 13:01:49;;;;;;;3.97;2.30;;;;;;;;;;4906520;29;20027;-69
2023/06/22 13:04:16;;;;;;;5.10;2.20;;;;;;;;;;4902714;29;20552;-69
2023/06/22 13:06:43;;;;;;;2.28;1.90;;;;;;;;;;4897897;29;20037;-69
2023/06/22 13:09:10;;;;;;;2.00;1.55;;;;;;;;;;4903064;29;20401;-69
2023/06/22 13:11:36;;;;;;;2.35;1.60;;;;;;;;;;4896289;29;20544;-69
2023/06/22 13:14:03;;;;;;;2.85;1.77;;;;;;;;;;4897964;29;20028;-69
2023/06/22 13:16:29;;;;;;;2.80;1.90;;;;;;;;;;4902277;29;20429;-69
2023/06/22 13:18:55;;;;;;;2.10;1.90;;;;;;;;;;4904514;29;20033;-67
2023/06/22 13:21:22;;;;;;;2.20;1.70;;;;;;;;;;4898689;29;20044;-66
2023/06/22 13:23:48;;;;;;;2.22;1.95;;;;;;;;;;4905737;29;20238;-68
2023/06/22 13:26:15;;;;;;;3.28;2.00;;;;;;;;;;4903629;29;20035;-69
2023/06/22 13:28:43;;;;;;;2.28;1.92;;;;;;;;;;4901218;29;20422;-67
2023/06/22 13:31:10;;;;;;;3.78;1.77;;;;;;;;;;4894782;29;20039;-68
2023/06/22 13:33:38;;;;;;;2.53;2.03;;;;;;;;;;4896476;29;20054;-67
2023/06/22 13:36:06;;;;;;;2.47;2.03;;;;;;;;;;4897859;29;20029;-67
2023/06/22 13:38:32;;;;;;;3.92;1.95;;;;;;;;;;4897453;29;20439;-68
2023/06/22 13:40:59;;;;;;;2.35;1.88;;;;;;;;;;4890831;29;20056;-67
2023/06/22 13:43:27;;;;;;;3.83;2.15;;;;;;;;;;4886396;29;20025;-68
2023/06/22 13:45:53;;;;;;;4.45;2.30;;;;;;;;;;4898004;29;20041;-67
2023/06/22 13:48:20;;;;;;;4.20;2.22;;;;;;;;;;4897985;29;20024;-68
2023/06/22 13:50:46;;;;;;;5.85;2.05;;;;;;;;;;4898373;29;20039;-68
2023/06/22 13:53:12;;;;;;;4.80;2.17;;;;;;;;;;4897302;29;20021;-67
2023/06/22 13:55:39;;;;;;;5.72;2.50;;;;;;;;;;4898202;29;20497;-69
2023/06/22 13:58:05;;;;;;;4.30;2.20;;;;;;;;;;4881060;29;20039;-68
2023/06/22 14:00:32;;;;;;;3.72;2.20;;;;;;;;;;4880172;29;20029;-67
2023/06/22 14:02:58;;;;;;;2.92;1.92;;;;;;;;;;4897484;29;20040;-68
2023/06/22 14:05:24;;;;;;;3.63;2.05;;;;;;;;;;4897522;29;20032;-69
2023/06/22 14:07:51;;;;;;;2.85;2.50;;;;;;;;;;4897874;29;20072;-69
2023/06/22 14:10:17;;;;;;;4.97;2.20;;;;;;;;;;4896465;29;20123;-68
2023/06/22 14:12:44;;;;;;;5.40;2.25;;;;;;;;;;4896429;29;20052;-68
2023/06/22 14:15:10;;;;;;;2.83;1.90;;;;;;;;;;4896664;29;20392;-68
2023/06/22 14:17:37;;;;;;;4.07;2.13;;;;;;;;;;4880406;29;20031;-67
2023/06/22 14:20:05;;;;;;;2.65;1.90;;;;;;;;;;4897508;29;20040;-67
2023/06/22 14:22:31;;;;;;;2.95;2.20;;;;;;;;;;4897291;29;20047;-67
2023/06/22 14:24:58;;;;;;;3.15;1.98;;;;;;;;;;4897841;29;20040;-68
2023/06/22 14:27:24;;;;;;;2.33;2.13;;;;;;;;;;4897071;29;20039;-67
2023/06/22 14:29:51;;;;;;;3.95;1.80;;;;;;;;;;4896971;29;20028;-68
2023/06/22 14:32:17;;;;;;;2.15;1.95;;;;;;;;;;4897022;29;20039;-68
2023/06/22 14:34:43;;;;;;;1.83;1.70;;;;;;;;;;4896457;29;20021;-68